Time;durP1;ratioP1;P1;durP2;ratioP2;P2;SDS_P1;SDS_P2;PMS_P1;PMS_P2;Temp;Humidity;BMP_temperature;BMP_pressure;BME280_temperature;BME280_humidity;BME280_pressure;Samples;Min_cycle;Max_cycle;Signal;HPM_P1;HPM_P2
2022/09/08 00:00:36;;;;;;;2.58;1.33;;;15.50;99.90;;;;;;5034585;28;20033;-69
2022/09/08 00:03:06;;;;;;;3.55;1.52;;;15.50;99.90;;;;;;5034888;28;20040;-69
2022/09/08 00:05:36;;;;;;;3.25;1.60;;;15.50;99.90;;;;;;5034526;28;20025;-69
2022/09/08 00:08:03;;;;;;;4.57;1.83;;;15.50;99.90;;;;;;5034854;28;20028;-69
2022/09/08 00:10:30;;;;;;;3.70;1.63;;;15.50;99.90;;;;;;5034425;28;20037;-69
2022/09/08 00:12:56;;;;;;;2.22;1.23;;;15.40;99.90;;;;;;5034482;28;20035;-69
2022/09/08 00:15:23;;;;;;;2.20;1.50;;;15.40;99.90;;;;;;5034478;28;20441;-69
2022/09/08 00:17:49;;;;;;;2.55;1.60;;;15.50;99.90;;;;;;5034433;28;20481;-69
2022/09/08 00:20:15;;;;;;;3.67;1.67;;;15.50;99.90;;;;;;5034802;28;20044;-69
2022/09/08 00:22:41;;;;;;;3.92;1.70;;;15.50;99.90;;;;;;5034553;28;20029;-69
2022/09/08 00:25:08;;;;;;;2.40;1.42;;;15.30;99.90;;;;;;5034170;28;20080;-69
2022/09/08 00:27:34;;;;;;;3.63;1.50;;;15.30;99.90;;;;;;5034132;28;20032;-70
2022/09/08 00:29:59;;;;;;;2.28;1.20;;;15.20;99.90;;;;;;5032879;28;20037;-70
2022/09/08 00:32:25;;;;;;;3.05;1.27;;;15.20;99.90;;;;;;5034105;28;20067;-70
2022/09/08 00:34:51;;;;;;;3.80;1.27;;;15.20;99.90;;;;;;5034020;28;20091;-70
2022/09/08 00:37:18;;;;;;;2.72;1.30;;;15.20;99.90;;;;;;5016692;28;20036;-69
2022/09/08 00:39:44;;;;;;;2.30;1.52;;;15.20;99.90;;;;;;5033979;28;20032;-70
2022/09/08 00:42:10;;;;;;;4.30;1.50;;;15.30;99.90;;;;;;5034362;28;20033;-70
2022/09/08 00:44:39;;;;;;;1.85;1.25;;;15.30;99.90;;;;;;5033900;28;20156;-70
2022/09/08 00:47:13;;;;;;;3.15;1.40;;;15.30;99.90;;;;;;5033774;28;20029;-70
2022/09/08 00:49:41;;;;;;;4.15;1.40;;;15.30;99.90;;;;;;5033836;28;20017;-70
2022/09/08 00:52:07;;;;;;;4.03;1.40;;;15.40;99.90;;;;;;5033687;28;20466;-70
2022/09/08 00:54:35;;;;;;;4.43;1.50;;;15.40;99.90;;;;;;5033758;28;20147;-70
2022/09/08 00:57:02;;;;;;;2.50;1.20;;;15.40;99.90;;;;;;5033628;28;20048;-70
2022/09/08 00:59:28;;;;;;;2.15;1.27;;;15.40;99.90;;;;;;5034207;28;20454;-70
2022/09/08 01:01:54;;;;;;;3.58;1.30;;;15.40;99.90;;;;;;5032212;28;20040;-70
2022/09/08 01:04:21;;;;;;;2.05;1.20;;;15.30;99.90;;;;;;5033585;28;20116;-70
2022/09/08 01:13:20;;;;;;;4.15;1.58;;;15.10;99.90;;;;;;4972628;28;20043;-70
2022/09/08 01:15:46;;;;;;;1.92;1.20;;;15.10;99.90;;;;;;4972565;28;20031;-70
2022/09/08 01:18:12;;;;;;;2.65;1.30;;;15.10;99.90;;;;;;5010477;28;20041;-69
2022/09/08 01:20:48;;;;;;;3.78;1.67;;;15.20;99.90;;;;;;5033820;28;20013;-70
2022/09/08 01:23:28;;;;;;;4.47;1.67;;;15.20;99.90;;;;;;5033561;28;20025;-70
2022/09/08 01:26:31;;;;;;;2.42;1.50;;;15.10;99.90;;;;;;5033459;28;20028;-70
2022/09/08 01:29:05;;;;;;;3.28;1.63;;;15.10;99.90;;;;;;5031945;28;20394;-70
2022/09/08 01:31:35;;;;;;;3.33;1.67;;;15.10;99.90;;;;;;5033439;28;20461;-70
2022/09/08 01:34:01;;;;;;;2.53;1.50;;;15.20;99.90;;;;;;5033187;28;20040;-70
2022/09/08 01:36:27;;;;;;;2.55;1.70;;;15.20;99.90;;;;;;5015530;28;20124;-70
2022/09/08 01:38:52;;;;;;;2.33;1.30;;;15.30;99.90;;;;;;5033146;28;20096;-70
2022/09/08 01:41:18;;;;;;;2.38;1.30;;;15.20;99.90;;;;;;5033060;28;20456;-70
2022/09/08 01:43:44;;;;;;;2.58;1.30;;;15.20;99.90;;;;;;5033644;28;20091;-70
2022/09/08 01:46:10;;;;;;;2.80;1.40;;;15.20;99.90;;;;;;5033228;28;20075;-70
2022/09/08 01:48:36;;;;;;;2.28;1.38;;;15.20;99.90;;;;;;5034339;28;20022;-70
2022/09/08 01:51:05;;;;;;;3.05;1.60;;;15.20;99.90;;;;;;5019463;28;20022;-70
2022/09/08 01:53:31;;;;;;;3.22;1.42;;;15.20;99.90;;;;;;5037635;28;20144;-70
2022/09/08 01:55:57;;;;;;;3.53;1.52;;;15.10;99.90;;;;;;5037563;28;20033;-70
2022/09/08 01:58:24;;;;;;;2.55;1.73;;;15.10;99.90;;;;;;5037533;28;20029;-70
2022/09/08 02:00:50;;;;;;;4.07;1.88;;;15.10;99.90;;;;;;5036859;28;20034;-70
2022/09/08 02:03:16;;;;;;;4.10;1.88;;;15.10;99.90;;;;;;5036903;28;20363;-70
2022/09/08 02:05:43;;;;;;;3.30;2.00;;;15.10;99.90;;;;;;5037084;28;20029;-70
2022/09/08 02:08:10;;;;;;;3.10;1.60;;;15.20;99.90;;;;;;5037043;28;20038;-70
2022/09/08 02:10:38;;;;;;;2.88;1.63;;;15.20;99.90;;;;;;5036868;28;20095;-70
2022/09/08 02:13:04;;;;;;;2.50;1.48;;;15.20;99.90;;;;;;5035475;28;20030;-70
2022/09/08 02:15:30;;;;;;;3.25;1.92;;;15.20;99.90;;;;;;5036652;28;20115;-70
2022/09/08 02:17:59;;;;;;;3.08;2.30;;;15.20;99.90;;;;;;5036661;28;20079;-70
2022/09/08 02:20:26;;;;;;;4.43;2.30;;;15.20;99.90;;;;;;5035253;28;20504;-70
2022/09/08 02:22:55;;;;;;;3.17;1.90;;;15.10;99.90;;;;;;5036583;28;20072;-70
2022/09/08 02:25:21;;;;;;;3.15;1.90;;;15.10;99.90;;;;;;5036786;28;20376;-69
2022/09/08 02:27:50;;;;;;;4.00;2.00;;;15.00;99.90;;;;;;5036466;28;20045;-69
2022/09/08 02:30:16;;;;;;;5.15;2.10;;;15.00;99.90;;;;;;5036409;28;20025;-70
2022/09/08 02:32:42;;;;;;;3.38;1.98;;;15.00;99.90;;;;;;5036327;28;20385;-70
2022/09/08 02:35:08;;;;;;;2.45;1.52;;;15.00;99.90;;;;;;5036552;28;20033;-69
2022/09/08 02:37:34;;;;;;;2.40;1.50;;;15.00;99.90;;;;;;5035003;28;20029;-70
2022/09/08 02:40:02;;;;;;;2.67;1.58;;;15.00;99.90;;;;;;5036114;28;20037;-70
2022/09/08 02:42:28;;;;;;;3.45;1.60;;;15.00;99.90;;;;;;5036222;28;20104;-69
2022/09/08 02:44:54;;;;;;;3.03;1.67;;;15.00;99.90;;;;;;5036130;28;20122;-70
2022/09/08 02:47:20;;;;;;;3.85;1.55;;;15.00;99.90;;;;;;5034814;28;20132;-70
2022/09/08 02:49:45;;;;;;;6.63;2.03;;;15.00;99.90;;;;;;5034769;28;20086;-70
2022/09/08 02:52:11;;;;;;;2.03;1.27;;;14.90;99.90;;;;;;5036025;28;20096;-70
2022/09/08 02:54:38;;;;;;;4.82;1.52;;;14.90;99.90;;;;;;5036030;28;20026;-70
2022/09/08 02:57:04;;;;;;;6.47;2.60;;;14.80;99.90;;;;;;5035927;28;20025;-69
2022/09/08 02:59:30;;;;;;;2.95;2.00;;;14.80;99.90;;;;;;5017775;28;20048;-70
2022/09/08 03:01:58;;;;;;;2.90;2.00;;;14.80;99.90;;;;;;5035322;28;20037;-70
2022/09/08 03:04:24;;;;;;;4.43;1.98;;;14.80;99.90;;;;;;5035778;28;20079;-70
2022/09/08 03:06:50;;;;;;;3.22;1.90;;;14.80;99.90;;;;;;5035975;28;20037;-70
2022/09/08 03:09:16;;;;;;;3.35;2.17;;;14.80;99.90;;;;;;5035712;28;20033;-70
2022/09/08 03:11:42;;;;;;;3.13;2.10;;;14.80;99.90;;;;;;5035583;28;20025;-70
2022/09/08 03:14:08;;;;;;;2.92;1.90;;;14.90;99.90;;;;;;5035887;28;20022;-70
2022/09/08 03:16:33;;;;;;;3.85;1.75;;;14.90;99.90;;;;;;5035834;28;20378;-70
2022/09/08 03:18:59;;;;;;;3.80;1.95;;;14.90;99.90;;;;;;5034315;28;20029;-70
2022/09/08 03:21:25;;;;;;;2.40;1.73;;;14.90;99.90;;;;;;5034116;28;20040;-70
2022/09/08 03:23:51;;;;;;;2.50;1.65;;;15.00;99.90;;;;;;5035421;28;20025;-69
2022/09/08 03:26:20;;;;;;;5.00;1.52;;;15.00;99.90;;;;;;5035612;28;20377;-70
2022/09/08 03:28:46;;;;;;;4.78;1.50;;;15.00;99.90;;;;;;5035363;28;20028;-70
2022/09/08 03:31:15;;;;;;;5.40;1.80;;;14.90;99.90;;;;;;5034476;28;20034;-70
2022/09/08 03:33:41;;;;;;;3.95;2.00;;;14.90;99.90;;;;;;5034089;28;20087;-70
2022/09/08 03:36:09;;;;;;;3.30;2.05;;;14.80;99.90;;;;;;5034541;28;20441;-70
2022/09/08 03:38:36;;;;;;;3.70;1.98;;;14.80;99.90;;;;;;5035137;28;20033;-70
2022/09/08 03:41:07;;;;;;;3.63;1.35;;;14.70;99.90;;;;;;5035279;28;20025;-70
2022/09/08 03:43:33;;;;;;;2.10;1.45;;;14.80;99.90;;;;;;5034273;28;20064;-70
2022/09/08 03:45:59;;;;;;;2.47;1.60;;;14.80;99.90;;;;;;5034958;28;20089;-70
2022/09/08 03:48:25;;;;;;;3.17;1.92;;;14.80;99.90;;;;;;5034981;28;20029;-69
2022/09/08 03:50:51;;;;;;;5.93;3.85;;;14.80;99.90;;;;;;5034833;28;20025;-69
2022/09/08 03:53:17;;;;;;;4.78;3.67;;;14.80;99.90;;;;;;5034916;28;20026;-69
2022/09/08 03:55:43;;;;;;;4.28;3.05;;;14.80;99.90;;;;;;5034778;28;20389;-69
2022/09/08 03:58:10;;;;;;;3.67;2.53;;;14.70;99.90;;;;;;5034784;28;20041;-70
2022/09/08 04:00:38;;;;;;;5.93;2.92;;;14.80;99.90;;;;;;5033697;28;20021;-70
2022/09/08 04:03:04;;;;;;;6.53;2.92;;;14.80;99.90;;;;;;5034686;28;20026;-69
2022/09/08 04:05:31;;;;;;;5.05;2.97;;;14.80;99.90;;;;;;5034824;28;20036;-70
2022/09/08 04:07:57;;;;;;;9.43;5.13;;;14.80;99.90;;;;;;5034606;28;20021;-69
2022/09/08 04:10:23;;;;;;;5.00;2.72;;;14.80;99.90;;;;;;5034474;28;20025;-70
2022/09/08 04:12:49;;;;;;;4.82;3.13;;;14.80;99.90;;;;;;5034027;28;20025;-70
2022/09/08 04:15:15;;;;;;;4.63;3.40;;;14.80;99.90;;;;;;5033254;28;20026;-69
2022/09/08 04:17:41;;;;;;;5.95;3.60;;;14.70;99.90;;;;;;5033540;28;20036;-69
2022/09/08 04:20:08;;;;;;;6.75;3.75;;;14.70;99.90;;;;;;5034298;28;20496;-70
2022/09/08 04:22:34;;;;;;;6.88;3.90;;;14.60;99.90;;;;;;5034309;28;20337;-70
2022/09/08 04:25:01;;;;;;;6.53;3.40;;;14.60;99.90;;;;;;5034292;28;20096;-70
2022/09/08 04:27:27;;;;;;;5.00;2.53;;;14.60;99.90;;;;;;5034409;28;20358;-69
2022/09/08 04:29:53;;;;;;;3.88;3.00;;;14.60;99.90;;;;;;5034147;28;20446;-70
2022/09/08 04:32:19;;;;;;;4.35;2.55;;;14.60;99.90;;;;;;5034000;28;20101;-70
2022/09/08 04:34:49;;;;;;;3.20;2.45;;;14.60;99.90;;;;;;5034322;28;20492;-70
2022/09/08 04:37:15;;;;;;;3.65;2.50;;;14.60;99.90;;;;;;5034356;28;20022;-70
2022/09/08 04:39:41;;;;;;;3.97;2.75;;;14.60;99.90;;;;;;5032740;28;20034;-70
2022/09/08 04:42:08;;;;;;;4.07;2.67;;;14.70;99.90;;;;;;5034190;28;20103;-70
2022/09/08 04:44:34;;;;;;;7.45;2.80;;;14.70;99.90;;;;;;5032659;28;20029;-70
2022/09/08 04:47:00;;;;;;;4.32;3.00;;;14.70;99.90;;;;;;5032863;28;20044;-70
2022/09/08 04:49:26;;;;;;;3.38;2.45;;;14.70;99.90;;;;;;5033863;28;20109;-70
2022/09/08 04:51:52;;;;;;;5.10;2.58;;;14.70;99.90;;;;;;5034005;28;20037;-70
2022/09/08 04:54:18;;;;;;;4.43;2.50;;;14.70;99.90;;;;;;5033898;28;20025;-70
2022/09/08 04:56:44;;;;;;;4.35;1.80;;;14.80;99.90;;;;;;5032545;28;20112;-70
2022/09/08 04:59:10;;;;;;;3.30;1.98;;;14.80;99.90;;;;;;5034210;28;20119;-70
2022/09/08 05:01:36;;;;;;;3.17;1.83;;;14.80;99.90;;;;;;5033597;28;20108;-70
2022/09/08 05:04:03;;;;;;;3.55;1.80;;;14.90;99.90;;;;;;5033599;28;20030;-70
2022/09/08 05:06:32;;;;;;;3.50;1.92;;;14.90;99.90;;;;;;5033822;28;20104;-70
2022/09/08 05:08:59;;;;;;;3.83;1.73;;;14.90;99.90;;;;;;5033546;28;20477;-70
2022/09/08 05:11:26;;;;;;;2.85;1.80;;;14.90;99.90;;;;;;5034135;28;20510;-70
2022/09/08 05:13:53;;;;;;;4.22;1.88;;;15.00;99.90;;;;;;5033432;28;20025;-70
2022/09/08 05:16:24;;;;;;;4.00;1.85;;;15.00;99.90;;;;;;5032097;28;20030;-70
2022/09/08 05:19:02;;;;;;;3.58;2.10;;;15.10;99.90;;;;;;5033311;28;20033;-70
2022/09/08 05:21:29;;;;;;;4.32;1.92;;;15.10;99.90;;;;;;5033461;28;20025;-70
2022/09/08 05:24:00;;;;;;;3.90;2.33;;;15.20;99.90;;;;;;5032786;28;20049;-70
2022/09/08 05:26:26;;;;;;;3.25;2.25;;;15.20;99.90;;;;;;5033199;28;20040;-70
2022/09/08 05:28:53;;;;;;;3.75;2.05;;;15.20;99.90;;;;;;5033160;28;20025;-70
2022/09/08 05:31:22;;;;;;;3.13;2.08;;;15.30;99.90;;;;;;5033684;28;20025;-70
2022/09/08 05:33:48;;;;;;;4.63;2.80;;;15.30;99.90;;;;;;5033055;28;20460;-70
2022/09/08 05:36:35;;;;;;;3.80;2.60;;;15.40;99.90;;;;;;5033102;28;20025;-70
2022/09/08 05:39:03;;;;;;;3.63;2.45;;;15.30;99.90;;;;;;5033096;28;20030;-70
2022/09/08 05:41:31;;;;;;;3.90;2.90;;;15.40;99.90;;;;;;5033346;28;20381;-70
2022/09/08 05:43:58;;;;;;;5.15;2.88;;;15.30;99.90;;;;;;5033088;28;20025;-70
2022/09/08 05:46:25;;;;;;;4.90;2.60;;;15.30;99.90;;;;;;5033265;28;20489;-70
2022/09/08 05:48:53;;;;;;;6.53;2.60;;;15.30;99.90;;;;;;5033028;28;20029;-70
2022/09/08 05:51:19;;;;;;;6.60;3.22;;;15.20;99.90;;;;;;5032972;28;20477;-70
2022/09/08 05:53:45;;;;;;;4.43;3.08;;;15.20;99.90;;;;;;5032977;28;20029;-70
2022/09/08 05:56:11;;;;;;;3.35;2.70;;;15.20;99.90;;;;;;5033258;28;20033;-70
2022/09/08 05:58:37;;;;;;;3.55;2.50;;;15.20;99.90;;;;;;5033182;28;20497;-71
2022/09/08 06:01:10;;;;;;;4.05;3.00;;;15.20;99.90;;;;;;5031690;28;20430;-71
2022/09/08 06:03:36;;;;;;;6.00;3.05;;;15.30;99.90;;;;;;5032874;28;20466;-70
2022/09/08 06:06:10;;;;;;;3.92;2.92;;;15.30;99.90;;;;;;5032852;28;20569;-70
2022/09/08 06:08:38;;;;;;;4.85;3.10;;;15.30;99.90;;;;;;5033189;28;20025;-70
2022/09/08 06:11:04;;;;;;;5.82;3.35;;;15.40;99.90;;;;;;5032744;28;20088;-70
2022/09/08 06:13:32;;;;;;;7.55;3.50;;;15.40;99.90;;;;;;5031521;28;20030;-70
2022/09/08 06:16:12;;;;;;;6.60;4.57;;;15.50;99.90;;;;;;5031511;28;20026;-70
2022/09/08 06:18:41;;;;;;;6.93;4.90;;;15.50;99.90;;;;;;5033101;28;20033;-70
2022/09/08 06:21:14;;;;;;;6.60;4.53;;;15.50;99.90;;;;;;5032659;28;20623;-70
2022/09/08 06:23:40;;;;;;;7.13;5.03;;;15.50;99.90;;;;;;5032649;28;20505;-70
2022/09/08 06:26:38;;;;;;;4.95;4.03;;;15.50;99.90;;;;;;5032623;28;20037;-69
2022/09/08 06:29:20;;;;;;;8.98;4.75;;;15.50;99.90;;;;;;5031358;28;20025;-70
2022/09/08 06:32:00;;;;;;;5.47;4.13;;;15.60;99.90;;;;;;5032646;28;20021;-72
2022/09/08 06:34:29;;;;;;;5.68;3.88;;;15.60;99.90;;;;;;5033472;28;20452;-69
2022/09/08 06:37:11;;;;;;;5.50;3.97;;;15.60;99.90;;;;;;5036372;28;20111;-70
2022/09/08 06:39:54;;;;;;;7.75;4.45;;;15.60;99.90;;;;;;5036243;28;20037;-69
2022/09/08 06:42:44;;;;;;;6.75;5.03;;;15.60;99.90;;;;;;5034975;28;20038;-69
2022/09/08 06:45:29;;;;;;;7.28;4.10;;;15.60;99.90;;;;;;5036487;28;20156;-69
2022/09/08 06:48:15;;;;;;;5.68;4.03;;;15.50;99.90;;;;;;5036689;28;20021;-70
2022/09/08 06:50:59;;;;;;;6.80;4.20;;;15.50;99.90;;;;;;5035992;28;20026;-70
2022/09/08 06:53:32;;;;;;;7.72;5.22;;;15.50;99.90;;;;;;5036217;28;20028;-70
2022/09/08 06:56:39;;;;;;;8.30;5.85;;;15.60;99.90;;;;;;5036224;28;20037;-70
2022/09/08 06:59:21;;;;;;;9.82;5.93;;;15.60;99.90;;;;;;5035941;28;20060;-69
2022/09/08 07:01:55;;;;;;;8.13;6.07;;;15.60;99.90;;;;;;5035983;28;20025;-70
2022/09/08 07:04:21;;;;;;;5.65;4.55;;;15.60;99.90;;;;;;5036128;28;20026;-70
2022/09/08 07:07:16;;;;;;;5.80;4.35;;;15.60;99.90;;;;;;5035623;28;20422;-69
2022/09/08 07:10:03;;;;;;;11.98;5.68;;;15.70;99.90;;;;;;5035763;28;20028;-69
2022/09/08 07:12:29;;;;;;;7.85;5.65;;;15.70;99.90;;;;;;5035717;28;20050;-69
2022/09/08 07:15:23;;;;;;;6.40;4.50;;;15.70;99.90;;;;;;5035661;28;20393;-70
2022/09/08 07:17:56;;;;;;;8.00;5.35;;;15.70;99.90;;;;;;5027465;28;20034;-70
2022/09/08 07:20:27;;;;;;;7.43;5.88;;;15.70;99.90;;;;;;5034565;28;20112;-70
2022/09/08 07:23:24;;;;;;;6.45;4.38;;;15.80;99.90;;;;;;5034176;28;20059;-70
2022/09/08 07:25:59;;;;;;;7.85;4.90;;;15.70;99.90;;;;;;5035297;28;20037;-70
2022/09/08 07:28:30;;;;;;;6.68;4.32;;;15.70;99.90;;;;;;5035631;28;20101;-70
2022/09/08 07:31:09;;;;;;;;;;;15.80;99.90;;;;;;5034719;28;20381;-70
2022/09/08 07:33:41;;;;;;;8.00;5.57;;;15.80;99.90;;;;;;5035438;28;20003;-70
2022/09/08 07:36:47;;;;;;;6.57;4.32;;;15.70;99.90;;;;;;5033906;28;20029;-70
2022/09/08 07:39:37;;;;;;;7.93;5.15;;;15.80;99.90;;;;;;5033927;28;20036;-70
2022/09/08 07:42:05;;;;;;;6.97;4.40;;;15.80;99.90;;;;;;5035064;28;20048;-70
2022/09/08 07:44:33;;;;;;;5.95;4.03;;;15.80;99.90;;;;;;5035336;28;20022;-70
2022/09/08 07:47:18;;;;;;;8.57;5.57;;;15.70;99.90;;;;;;5034701;28;20053;-70
2022/09/08 07:49:57;;;;;;;7.80;5.28;;;15.80;99.90;;;;;;5034275;28;20025;-70
2022/09/08 07:52:31;;;;;;;8.05;6.13;;;15.80;99.90;;;;;;5035487;28;20022;-70
2022/09/08 07:54:57;;;;;;;5.85;4.82;;;15.80;99.90;;;;;;5034899;28;20101;-70
2022/09/08 07:57:32;;;;;;;6.35;4.43;;;15.70;99.90;;;;;;5035394;28;20172;-70
2022/09/08 08:00:27;;;;;;;8.60;4.65;;;15.70;99.90;;;;;;5035039;28;20449;-69
2022/09/08 08:03:10;;;;;;;6.70;4.53;;;15.80;99.90;;;;;;5033083;28;20520;-69
2022/09/08 08:05:40;;;;;;;7.15;4.85;;;15.80;99.90;;;;;;5034641;28;20032;-69
2022/09/08 08:08:30;;;;;;;6.35;4.15;;;15.80;99.90;;;;;;5034692;28;20504;-69
2022/09/08 08:11:16;;;;;;;6.72;4.63;;;15.90;99.90;;;;;;5034547;28;20026;-69
2022/09/08 08:14:11;;;;;;;10.50;5.15;;;16.00;99.90;;;;;;5033303;28;20025;-69
2022/09/08 08:16:55;;;;;;;6.50;5.55;;;16.00;99.90;;;;;;5033482;28;20037;-69
2022/09/08 08:20:02;;;;;;;5.55;2.90;;;16.10;99.90;;;;;;5034442;28;20028;-69
2022/09/08 08:22:37;;;;;;;8.00;4.55;;;16.10;99.90;;;;;;4973678;28;20050;-69
2022/09/08 08:25:13;;;;;;;5.03;3.50;;;16.10;99.90;;;;;;5028196;28;20091;-69
2022/09/08 08:28:13;;;;;;;10.20;4.45;;;16.10;99.90;;;;;;5034253;28;20048;-69
2022/09/08 08:31:02;;;;;;;3.63;1.90;;;16.20;99.90;;;;;;5026107;28;20080;-70
2022/09/08 08:33:51;;;;;;;2.80;1.40;;;16.20;99.90;;;;;;5023000;28;20048;-70
2022/09/08 08:36:21;;;;;;;2.60;0.93;;;16.20;99.90;;;;;;5032572;28;20116;-71
2022/09/08 08:39:12;;;;;;;1.35;0.63;;;16.20;99.90;;;;;;5033987;28;20029;-71
2022/09/08 08:42:15;;;;;;;2.72;0.70;;;16.10;99.90;;;;;;5021635;28;20030;-71
2022/09/08 08:44:53;;;;;;;1.75;0.70;;;16.10;99.90;;;;;;5033936;28;20508;-69
2022/09/08 08:47:50;;;;;;;0.75;0.35;;;16.10;99.90;;;;;;5034177;28;20448;-70
2022/09/08 08:50:38;;;;;;;1.17;0.65;;;16.10;99.90;;;;;;5032751;28;20029;-68
2022/09/08 08:53:16;;;;;;;1.75;0.68;;;16.00;99.90;;;;;;5032544;28;20036;-69
2022/09/08 08:55:42;;;;;;;0.80;0.43;;;16.00;99.90;;;;;;5033805;28;20104;-69
2022/09/08 08:58:55;;;;;;;0.90;0.50;;;15.90;99.90;;;;;;5033689;28;20053;-69
2022/09/08 09:01:32;;;;;;;1.27;0.50;;;15.90;99.90;;;;;;5033853;28;20041;-69
2022/09/08 09:04:29;;;;;;;0.70;0.47;;;15.90;99.90;;;;;;5033923;28;20052;-69
2022/09/08 09:06:58;;;;;;;2.25;0.55;;;15.90;99.90;;;;;;5033472;28;20075;-69
2022/09/08 09:09:57;;;;;;;0.57;0.40;;;15.80;99.90;;;;;;5032253;28;20105;-69
2022/09/08 09:12:41;;;;;;;0.30;0.20;;;15.90;99.90;;;;;;5033539;28;20025;-69
2022/09/08 09:15:15;;;;;;;0.52;0.30;;;15.90;99.90;;;;;;5033455;28;20434;-69
2022/09/08 09:17:56;;;;;;;0.70;0.50;;;15.90;99.90;;;;;;5033392;28;20037;-70
2022/09/08 09:20:30;;;;;;;2.47;0.60;;;15.90;99.90;;;;;;5033754;28;20033;-70
2022/09/08 09:23:07;;;;;;;0.75;0.40;;;15.90;99.90;;;;;;5032050;28;20033;-69
2022/09/08 09:25:35;;;;;;;1.17;0.63;;;15.90;99.90;;;;;;5033240;28;20133;-69
2022/09/08 09:28:38;;;;;;;1.25;0.52;;;15.90;99.90;;;;;;5033519;28;20473;-70
2022/09/08 09:31:13;;;;;;;2.00;1.10;;;15.80;99.90;;;;;;5031893;28;20470;-69
2022/09/08 09:33:53;;;;;;;0.70;0.35;;;15.80;99.90;;;;;;5033292;28;20393;-69
2022/09/08 09:37:02;;;;;;;0.45;0.30;;;15.70;99.90;;;;;;5033479;28;20100;-69
2022/09/08 09:39:49;;;;;;;0.80;0.47;;;15.70;99.90;;;;;;5033139;28;20497;-69
2022/09/08 09:42:23;;;;;;;1.27;0.57;;;15.60;99.90;;;;;;5033111;28;20025;-70
2022/09/08 09:45:04;;;;;;;0.73;0.40;;;15.70;99.90;;;;;;5033099;28;20021;-70
2022/09/08 09:47:47;;;;;;;1.13;0.50;;;15.60;99.90;;;;;;5033578;28;20033;-69
2022/09/08 09:50:29;;;;;;;0.40;0.30;;;15.70;99.90;;;;;;5033348;28;20022;-69
2022/09/08 09:53:09;;;;;;;0.60;0.30;;;15.70;99.90;;;;;;5033373;28;20018;-69
2022/09/08 09:55:44;;;;;;;2.33;0.30;;;15.70;99.90;;;;;;5031802;28;20018;-69
2022/09/08 09:58:34;;;;;;;0.47;0.38;;;15.70;99.90;;;;;;5032013;28;20120;-69
2022/09/08 10:01:15;;;;;;;1.80;0.95;;;15.60;99.90;;;;;;5033501;28;20381;-69
2022/09/08 10:04:08;;;;;;;3.25;1.60;;;15.70;99.90;;;;;;5033204;28;20464;-69
2022/09/08 10:06:59;;;;;;;1.75;0.90;;;15.60;99.90;;;;;;5033847;28;20026;-69
2022/09/08 10:09:49;;;;;;;2.55;0.70;;;15.60;99.90;;;;;;5006789;28;20034;-69
2022/09/08 10:12:30;;;;;;;2.25;0.50;;;15.60;99.90;;;;;;5036805;28;20026;-69
2022/09/08 10:15:23;;;;;;;1.10;0.40;;;15.60;99.90;;;;;;5036822;28;20052;-68
2022/09/08 10:18:39;;;;;;;0.73;0.40;;;15.60;99.90;;;;;;5036758;28;20081;-69
2022/09/08 10:21:29;;;;;;;1.50;0.45;;;15.60;99.90;;;;;;4975710;28;20483;-69
2022/09/08 10:24:07;;;;;;;2.58;0.95;;;15.70;99.90;;;;;;5033759;28;20386;-69
2022/09/08 10:26:51;;;;;;;4.05;1.50;;;15.70;99.90;;;;;;5036497;28;20064;-70
2022/09/08 10:29:36;;;;;;;3.97;1.40;;;15.70;99.90;;;;;;5036744;28;20025;-70
2022/09/08 10:32:31;;;;;;;10.57;1.88;;;15.70;99.90;;;;;;5036583;28;20056;-69
2022/09/08 10:35:25;;;;;;;3.95;0.50;;;15.70;99.90;;;;;;5036271;28;20037;-69
2022/09/08 10:37:57;;;;;;;0.60;0.30;;;15.70;99.90;;;;;;5036608;28;20029;-69
2022/09/08 10:40:36;;;;;;;3.00;0.55;;;15.70;99.90;;;;;;5036544;28;20025;-69
2022/09/08 10:43:20;;;;;;;1.38;0.30;;;15.60;99.90;;;;;;5036528;28;20104;-70
2022/09/08 10:45:52;;;;;;;2.05;0.45;;;15.60;99.90;;;;;;5036144;28;20036;-69
2022/09/08 10:48:40;;;;;;;1.45;0.30;;;15.50;99.90;;;;;;5036753;28;20021;-69
2022/09/08 10:51:21;;;;;;;1.70;0.40;;;15.50;99.90;;;;;;5036044;28;20028;-69
2022/09/08 10:53:58;;;;;;;1.05;0.40;;;15.50;99.90;;;;;;5036351;28;20096;-69
2022/09/08 11:02:41;;;;;;;0.88;0.47;;;15.50;99.90;;;;;;5100947;22;20055;-69
2022/09/08 11:05:37;;;;;;;1.10;0.60;;;15.60;99.90;;;;;;5035822;28;20026;-69
2022/09/08 11:08:06;;;;;;;4.72;0.60;;;15.60;99.90;;;;;;5034472;28;20037;-69
2022/09/08 11:10:46;;;;;;;2.25;0.63;;;15.60;99.90;;;;;;5035912;28;20037;-69
2022/09/08 11:13:30;;;;;;;0.80;0.40;;;15.60;99.90;;;;;;5035754;28;20036;-69
2022/09/08 11:16:24;;;;;;;0.70;0.50;;;15.60;99.90;;;;;;5034427;28;20029;-69
2022/09/08 11:18:49;;;;;;;1.80;0.77;;;15.60;99.90;;;;;;5036198;28;20462;-69
2022/09/08 11:21:29;;;;;;;2.60;0.68;;;15.60;99.90;;;;;;5034302;28;20032;-69
2022/09/08 11:24:23;;;;;;;0.45;0.30;;;15.60;99.90;;;;;;5035750;28;20021;-69
2022/09/08 11:27:18;;;;;;;1.20;0.50;;;15.60;99.90;;;;;;5035928;28;20052;-69
2022/09/08 11:30:10;;;;;;;0.47;0.28;;;15.70;99.90;;;;;;5035990;28;20028;-69
2022/09/08 11:32:50;;;;;;;1.50;0.52;;;15.70;99.90;;;;;;5035365;28;20048;-68
2022/09/08 11:35:22;;;;;;;1.13;0.52;;;15.70;99.90;;;;;;5035571;28;20127;-69
2022/09/08 11:38:10;;;;;;;1.20;0.40;;;15.80;99.90;;;;;;5035249;28;20044;-69
2022/09/08 11:41:08;;;;;;;0.32;0.30;;;15.90;99.90;;;;;;5035387;28;20034;-69
2022/09/08 11:43:36;;;;;;;1.42;0.20;;;15.90;99.90;;;;;;5035220;28;20477;-68
2022/09/08 11:46:30;;;;;;;1.02;0.30;;;15.90;99.90;;;;;;5035270;28;20080;-69
2022/09/08 11:49:20;;;;;;;1.23;0.32;;;15.90;99.90;;;;;;5033812;28;20017;-68
2022/09/08 11:51:56;;;;;;;1.38;0.38;;;15.90;99.90;;;;;;5034903;28;20018;-69
2022/09/08 11:55:06;;;;;;;0.50;0.20;;;15.90;99.90;;;;;;5034941;28;20029;-68
2022/09/08 11:57:40;;;;;;;0.38;0.20;;;16.00;99.90;;;;;;5034368;28;20495;-68
2022/09/08 12:00:32;;;;;;;0.82;0.28;;;16.00;99.90;;;;;;5034963;28;20025;-69
2022/09/08 12:03:26;;;;;;;1.15;0.40;;;16.10;99.90;;;;;;5034756;28;20104;-68
2022/09/08 12:06:14;;;;;;;0.90;0.30;;;16.10;99.90;;;;;;5033446;28;20048;-69
2022/09/08 12:09:21;;;;;;;1.17;0.30;;;16.10;99.90;;;;;;5034853;28;20096;-70
2022/09/08 12:12:29;;;;;;;0.43;0.30;;;16.10;99.90;;;;;;5034643;28;20478;-69
2022/09/08 12:15:16;;;;;;;2.00;0.30;;;16.10;99.90;;;;;;5023730;28;20033;-69
2022/09/08 12:18:07;;;;;;;0.43;0.30;;;16.10;99.90;;;;;;5033298;28;20026;-70
2022/09/08 12:21:18;;;;;;;0.93;0.40;;;16.10;99.90;;;;;;5034831;28;20056;-69
2022/09/08 12:23:57;;;;;;;0.93;0.30;;;16.20;99.90;;;;;;5034063;28;20486;-69
2022/09/08 12:26:40;;;;;;;0.65;0.40;;;16.20;99.90;;;;;;5034782;28;20429;-69
2022/09/08 12:29:20;;;;;;;0.68;0.30;;;16.20;99.90;;;;;;5034575;28;20028;-69
2022/09/08 12:31:49;;;;;;;1.27;0.50;;;16.20;99.90;;;;;;5033914;28;20025;-69
2022/09/08 12:34:45;;;;;;;3.05;0.73;;;16.20;99.90;;;;;;5034147;28;20026;-68
2022/09/08 12:37:29;;;;;;;1.88;0.60;;;16.20;99.90;;;;;;5034161;28;20029;-69
2022/09/08 12:40:32;;;;;;;2.85;0.50;;;16.20;99.90;;;;;;5034346;28;20032;-69
2022/09/08 12:43:07;;;;;;;0.47;0.20;;;16.30;99.90;;;;;;5034133;28;20021;-69
2022/09/08 12:46:04;;;;;;;1.67;0.47;;;16.30;99.90;;;;;;5034094;28;20562;-69
2022/09/08 12:48:32;;;;;;;1.00;0.50;;;16.40;99.90;;;;;;5034531;28;20079;-69
2022/09/08 12:51:30;;;;;;;1.95;0.75;;;16.50;99.90;;;;;;5034048;28;20028;-70
2022/09/08 12:54:07;;;;;;;0.93;0.50;;;16.60;99.90;;;;;;5033910;28;20025;-70
2022/09/08 12:56:56;;;;;;;0.93;0.40;;;16.60;99.90;;;;;;5034347;28;20068;-69
2022/09/08 12:59:55;;;;;;;0.93;0.30;;;16.70;99.90;;;;;;5033999;28;20504;-69
2022/09/08 13:02:40;;;;;;;1.30;0.38;;;16.70;99.90;;;;;;5033566;28;20393;-70
2022/09/08 13:05:50;;;;;;;1.23;0.50;;;16.80;99.90;;;;;;5033687;28;20057;-69
2022/09/08 13:08:46;;;;;;;0.40;0.28;;;17.00;99.90;;;;;;5033960;28;20037;-69
2022/09/08 13:11:20;;;;;;;0.75;0.30;;;17.20;99.90;;;;;;5033513;28;20022;-69
2022/09/08 13:13:46;;;;;;;0.88;0.30;;;17.20;99.90;;;;;;5033784;28;20048;-70
2022/09/08 13:16:40;;;;;;;0.80;0.20;;;17.20;99.90;;;;;;5033514;28;20032;-69
2022/09/08 13:19:27;;;;;;;0.65;0.30;;;17.50;99.90;;;;;;5033380;28;20430;-70
2022/09/08 13:22:11;;;;;;;3.78;0.50;;;17.80;99.90;;;;;;5032754;28;20110;-71
2022/09/08 13:24:41;;;;;;;1.08;0.30;;;18.00;99.90;;;;;;5033677;28;20496;-71
2022/09/08 13:27:16;;;;;;;0.95;0.30;;;18.30;99.90;;;;;;5033272;28;20079;-71
2022/09/08 13:29:56;;;;;;;0.73;0.35;;;18.60;99.90;;;;;;5033611;28;20409;-71
2022/09/08 13:32:36;;;;;;;0.47;0.30;;;18.90;99.90;;;;;;5033332;28;20022;-71
2022/09/08 13:35:08;;;;;;;0.50;0.30;;;19.00;99.90;;;;;;5033396;28;20036;-71
2022/09/08 13:37:52;;;;;;;0.47;0.30;;;19.10;99.90;;;;;;5032328;28;20480;-71
2022/09/08 13:40:33;;;;;;;0.68;0.35;;;18.90;99.90;;;;;;5034318;28;20038;-71
2022/09/08 13:43:24;;;;;;;0.70;0.30;;;18.70;99.90;;;;;;5032828;28;20032;-71
2022/09/08 13:45:59;;;;;;;;;;;18.60;99.90;;;;;;5033129;28;20029;-71